sensor_id;sensor_type;location;lat;lon;timestamp;pressure;altitude;pressure_sealevel;temperature;humidity
71107;BME280;58763;47.982;11.516;2023-05-03T00:02:12;94806.44;;;8.48;79.49
71107;BME280;58763;47.982;11.516;2023-05-03T00:04:39;94803.50;;;8.50;79.31
71107;BME280;58763;47.982;11.516;2023-05-03T00:07:06;94800.50;;;8.46;79.65
71107;BME280;58763;47.982;11.516;2023-05-03T00:09:34;94801.53;;;8.40;79.95
71107;BME280;58763;47.982;11.516;2023-05-03T00:12:00;94807.50;;;8.42;80.04
71107;BME280;58763;47.982;11.516;2023-05-03T00:14:27;94802.75;;;8.59;79.29
71107;BME280;58763;47.982;11.516;2023-05-03T00:16:52;94805.03;;;8.41;79.60
71107;BME280;58763;47.982;11.516;2023-05-03T00:19:18;94803.88;;;8.31;80.11
71107;BME280;58763;47.982;11.516;2023-05-03T00:21:44;94796.25;;;8.23;80.26
71107;BME280;58763;47.982;11.516;2023-05-03T00:24:11;94799.25;;;8.27;78.44
71107;BME280;58763;47.982;11.516;2023-05-03T00:26:36;94801.88;;;8.22;77.64
71107;BME280;58763;47.982;11.516;2023-05-03T00:29:02;94801.81;;;8.17;77.45
71107;BME280;58763;47.982;11.516;2023-05-03T00:31:28;94798.03;;;8.13;78.79
71107;BME280;58763;47.982;11.516;2023-05-03T00:33:53;94793.75;;;8.17;80.07
71107;BME280;58763;47.982;11.516;2023-05-03T00:36:19;94799.13;;;8.17;80.20
71107;BME280;58763;47.982;11.516;2023-05-03T00:38:45;94793.75;;;8.17;80.89
71107;BME280;58763;47.982;11.516;2023-05-03T00:41:11;94793.13;;;8.10;80.59
71107;BME280;58763;47.982;11.516;2023-05-03T00:43:40;94794.16;;;8.04;80.83
71107;BME280;58763;47.982;11.516;2023-05-03T00:46:06;94787.88;;;7.93;81.15
71107;BME280;58763;47.982;11.516;2023-05-03T00:48:33;94791.56;;;7.87;81.90
71107;BME280;58763;47.982;11.516;2023-05-03T00:50:59;94787.63;;;7.95;81.95
71107;BME280;58763;47.982;11.516;2023-05-03T00:53:33;94792.03;;;8.06;80.72
71107;BME280;58763;47.982;11.516;2023-05-03T00:55:59;94792.50;;;7.98;80.92
71107;BME280;58763;47.982;11.516;2023-05-03T00:58:26;94794.63;;;7.96;80.53
71107;BME280;58763;47.982;11.516;2023-05-03T01:00:57;94786.28;;;7.97;79.99
71107;BME280;58763;47.982;11.516;2023-05-03T01:03:23;94792.66;;;7.86;79.79
71107;BME280;58763;47.982;11.516;2023-05-03T01:05:57;94789.13;;;7.86;80.18
71107;BME280;58763;47.982;11.516;2023-05-03T01:09:01;94787.97;;;7.77;80.01
71107;BME280;58763;47.982;11.516;2023-05-03T01:11:54;94785.44;;;7.65;80.84
71107;BME280;58763;47.982;11.516;2023-05-03T01:14:46;94787.78;;;7.61;81.72
71107;BME280;58763;47.982;11.516;2023-05-03T01:17:17;94792.75;;;7.70;81.20
71107;BME280;58763;47.982;11.516;2023-05-03T01:19:50;94791.59;;;7.65;81.38
71107;BME280;58763;47.982;11.516;2023-05-03T01:22:26;94790.97;;;7.58;81.29
71107;BME280;58763;47.982;11.516;2023-05-03T01:25:06;94783.44;;;7.55;81.50
71107;BME280;58763;47.982;11.516;2023-05-03T01:27:33;94780.22;;;7.58;81.30
71107;BME280;58763;47.982;11.516;2023-05-03T01:29:59;94777.78;;;7.57;80.61
71107;BME280;58763;47.982;11.516;2023-05-03T01:32:34;94773.66;;;7.49;81.15
71107;BME280;58763;47.982;11.516;2023-05-03T01:35:11;94781.09;;;7.42;82.07
71107;BME280;58763;47.982;11.516;2023-05-03T01:37:38;94781.56;;;7.56;81.75
71107;BME280;58763;47.982;11.516;2023-05-03T01:40:05;94780.69;;;7.50;81.79
71107;BME280;58763;47.982;11.516;2023-05-03T01:42:36;94781.09;;;7.42;81.17
71107;BME280;58763;47.982;11.516;2023-05-03T01:45:04;94783.38;;;7.50;80.29
71107;BME280;58763;47.982;11.516;2023-05-03T01:47:30;94786.69;;;7.57;78.89
71107;BME280;58763;47.982;11.516;2023-05-03T01:49:57;94777.38;;;7.43;79.08
71107;BME280;58763;47.982;11.516;2023-05-03T01:52:22;94777.56;;;7.37;79.58
71107;BME280;58763;47.982;11.516;2023-05-03T01:54:54;94776.19;;;7.34;79.19
71107;BME280;58763;47.982;11.516;2023-05-03T01:57:20;94783.69;;;7.32;79.78
71107;BME280;58763;47.982;11.516;2023-05-03T01:59:45;94790.00;;;7.21;80.85
71107;BME280;58763;47.982;11.516;2023-05-03T02:02:11;94783.25;;;7.19;81.71
71107;BME280;58763;47.982;11.516;2023-05-03T02:04:36;94785.88;;;7.14;82.09
71107;BME280;58763;47.982;11.516;2023-05-03T02:07:03;94781.38;;;7.19;82.87
71107;BME280;58763;47.982;11.516;2023-05-03T02:09:29;94790.59;;;7.23;83.69
71107;BME280;58763;47.982;11.516;2023-05-03T02:11:55;94788.53;;;7.30;83.55
71107;BME280;58763;47.982;11.516;2023-05-03T02:14:20;94779.16;;;7.38;83.81
71107;BME280;58763;47.982;11.516;2023-05-03T02:16:47;94790.13;;;7.31;83.80
71107;BME280;58763;47.982;11.516;2023-05-03T02:19:13;94790.50;;;7.18;84.84
71107;BME280;58763;47.982;11.516;2023-05-03T02:21:39;94792.25;;;7.29;84.61
71107;BME280;58763;47.982;11.516;2023-05-03T02:24:05;94797.16;;;7.32;84.66
71107;BME280;58763;47.982;11.516;2023-05-03T02:26:31;94786.94;;;7.34;84.98
71107;BME280;58763;47.982;11.516;2023-05-03T02:28:57;94788.13;;;7.43;84.86
71107;BME280;58763;47.982;11.516;2023-05-03T02:31:31;94791.44;;;7.50;84.63
71107;BME280;58763;47.982;11.516;2023-05-03T02:33:57;94787.09;;;7.49;84.56
71107;BME280;58763;47.982;11.516;2023-05-03T02:36:23;94786.56;;;7.47;85.28
71107;BME280;58763;47.982;11.516;2023-05-03T02:38:50;94790.34;;;7.51;85.16
71107;BME280;58763;47.982;11.516;2023-05-03T02:41:17;94789.66;;;7.61;85.43
71107;BME280;58763;47.982;11.516;2023-05-03T02:43:42;94780.75;;;7.55;86.22
71107;BME280;58763;47.982;11.516;2023-05-03T02:46:08;94791.19;;;7.52;87.10
71107;BME280;58763;47.982;11.516;2023-05-03T02:48:34;94788.25;;;7.53;87.16
71107;BME280;58763;47.982;11.516;2023-05-03T02:51:00;94792.06;;;7.57;87.11
71107;BME280;58763;47.982;11.516;2023-05-03T02:53:26;94789.50;;;7.68;87.19
71107;BME280;58763;47.982;11.516;2023-05-03T02:55:52;94787.09;;;7.71;87.46
71107;BME280;58763;47.982;11.516;2023-05-03T02:58:18;94792.66;;;7.86;86.53
71107;BME280;58763;47.982;11.516;2023-05-03T03:00:49;94789.19;;;7.91;86.14
71107;BME280;58763;47.982;11.516;2023-05-03T03:03:15;94791.56;;;7.87;86.54
71107;BME280;58763;47.982;11.516;2023-05-03T03:05:42;94794.03;;;7.89;86.74
71107;BME280;58763;47.982;11.516;2023-05-03T03:08:07;94797.50;;;7.89;87.30
71107;BME280;58763;47.982;11.516;2023-05-03T03:10:34;94797.22;;;7.86;87.08
71107;BME280;58763;47.982;11.516;2023-05-03T03:13:00;94805.09;;;7.92;87.43
71107;BME280;58763;47.982;11.516;2023-05-03T03:15:30;94801.84;;;7.90;87.32
71107;BME280;58763;47.982;11.516;2023-05-03T03:17:55;94803.22;;;7.93;87.56
71107;BME280;58763;47.982;11.516;2023-05-03T03:20:22;94799.75;;;7.97;86.68
71107;BME280;58763;47.982;11.516;2023-05-03T03:22:49;94804.31;;;7.97;86.33
71107;BME280;58763;47.982;11.516;2023-05-03T03:25:14;94800.38;;;8.04;86.04
71107;BME280;58763;47.982;11.516;2023-05-03T03:27:40;94804.66;;;8.00;85.32
71107;BME280;58763;47.982;11.516;2023-05-03T03:30:07;94808.94;;;8.01;84.85
71107;BME280;58763;47.982;11.516;2023-05-03T03:32:33;94803.63;;;8.06;84.49
71107;BME280;58763;47.982;11.516;2023-05-03T03:34:59;94795.59;;;8.11;83.58
71107;BME280;58763;47.982;11.516;2023-05-03T03:37:25;94795.44;;;7.96;84.02
71107;BME280;58763;47.982;11.516;2023-05-03T03:39:50;94793.94;;;8.10;83.47
71107;BME280;58763;47.982;11.516;2023-05-03T03:42:20;94785.81;;;8.05;83.60
71107;BME280;58763;47.982;11.516;2023-05-03T03:44:47;94794.72;;;8.06;83.13
71107;BME280;58763;47.982;11.516;2023-05-03T03:47:14;94795.75;;;8.00;83.12
71107;BME280;58763;47.982;11.516;2023-05-03T03:49:39;94800.56;;;7.98;83.64
71107;BME280;58763;47.982;11.516;2023-05-03T03:52:10;94796.72;;;7.89;84.29
71107;BME280;58763;47.982;11.516;2023-05-03T03:54:36;94793.72;;;7.85;84.59
71107;BME280;58763;47.982;11.516;2023-05-03T03:57:02;94797.22;;;7.86;85.24
71107;BME280;58763;47.982;11.516;2023-05-03T03:59:28;94796.13;;;7.87;84.65
71107;BME280;58763;47.982;11.516;2023-05-03T04:01:54;94792.53;;;7.76;85.29
71107;BME280;58763;47.982;11.516;2023-05-03T04:04:20;94798.19;;;7.75;84.97
71107;BME280;58763;47.982;11.516;2023-05-03T04:06:46;94796.09;;;7.82;84.88
71107;BME280;58763;47.982;11.516;2023-05-03T04:09:24;94792.22;;;7.73;84.42
71107;BME280;58763;47.982;11.516;2023-05-03T04:11:50;94799.72;;;7.71;85.20
71107;BME280;58763;47.982;11.516;2023-05-03T04:14:16;94794.44;;;7.54;85.36
71107;BME280;58763;47.982;11.516;2023-05-03T04:16:41;94793.13;;;7.56;86.32
71107;BME280;58763;47.982;11.516;2023-05-03T04:19:19;94798.25;;;7.58;85.91
71107;BME280;58763;47.982;11.516;2023-05-03T04:21:46;94798.63;;;7.66;86.34
71107;BME280;58763;47.982;11.516;2023-05-03T04:24:18;94793.25;;;7.66;85.81
71107;BME280;58763;47.982;11.516;2023-05-03T04:26:44;94796.69;;;7.62;86.05
71107;BME280;58763;47.982;11.516;2023-05-03T04:29:12;94802.88;;;7.62;86.40
71107;BME280;58763;47.982;11.516;2023-05-03T04:31:38;94798.50;;;7.56;86.54
71107;BME280;58763;47.982;11.516;2023-05-03T04:34:04;94812.78;;;7.57;86.77
71107;BME280;58763;47.982;11.516;2023-05-03T04:36:31;94808.28;;;7.62;86.84
71107;BME280;58763;47.982;11.516;2023-05-03T04:38:57;94809.72;;;7.70;86.57
71107;BME280;58763;47.982;11.516;2023-05-03T04:41:23;94815.13;;;7.75;86.37
71107;BME280;58763;47.982;11.516;2023-05-03T04:43:49;94819.25;;;7.83;86.10
71107;BME280;58763;47.982;11.516;2023-05-03T04:46:16;94811.13;;;7.78;85.27
71107;BME280;58763;47.982;11.516;2023-05-03T04:48:44;94815.19;;;7.80;84.80
71107;BME280;58763;47.982;11.516;2023-05-03T04:51:10;94814.06;;;7.76;84.40
71107;BME280;58763;47.982;11.516;2023-05-03T04:53:36;94816.44;;;7.73;84.92
71107;BME280;58763;47.982;11.516;2023-05-03T04:56:01;94821.22;;;7.65;85.73
71107;BME280;58763;47.982;11.516;2023-05-03T04:58:27;94820.56;;;7.53;86.04
71107;BME280;58763;47.982;11.516;2023-05-03T05:00:53;94818.00;;;7.42;86.45
71107;BME280;58763;47.982;11.516;2023-05-03T05:03:19;94822.84;;;7.45;86.89
71107;BME280;58763;47.982;11.516;2023-05-03T05:05:45;94824.97;;;7.43;87.13
71107;BME280;58763;47.982;11.516;2023-05-03T05:08:16;94827.47;;;7.49;87.17
71107;BME280;58763;47.982;11.516;2023-05-03T05:10:42;94832.44;;;7.57;86.84
71107;BME280;58763;47.982;11.516;2023-05-03T05:13:08;94822.28;;;7.64;87.09
71107;BME280;58763;47.982;11.516;2023-05-03T05:15:34;94823.47;;;7.74;86.88
71107;BME280;58763;47.982;11.516;2023-05-03T05:18:00;94831.91;;;7.82;86.48
71107;BME280;58763;47.982;11.516;2023-05-03T05:20:26;94834.44;;;7.94;86.21
71107;BME280;58763;47.982;11.516;2023-05-03T05:22:51;94840.09;;;7.92;86.30
71107;BME280;58763;47.982;11.516;2023-05-03T05:25:17;94836.09;;;7.95;86.13
71107;BME280;58763;47.982;11.516;2023-05-03T05:27:43;94836.34;;;7.93;86.63
71107;BME280;58763;47.982;11.516;2023-05-03T05:30:09;94831.75;;;7.94;87.45
71107;BME280;58763;47.982;11.516;2023-05-03T05:32:36;94840.44;;;8.01;87.14
71107;BME280;58763;47.982;11.516;2023-05-03T05:35:03;94842.66;;;8.04;87.07
71107;BME280;58763;47.982;11.516;2023-05-03T05:37:31;94840.00;;;8.09;87.40
71107;BME280;58763;47.982;11.516;2023-05-03T05:39:56;94845.94;;;8.11;87.82
71107;BME280;58763;47.982;11.516;2023-05-03T05:42:22;94845.19;;;8.15;88.08
71107;BME280;58763;47.982;11.516;2023-05-03T05:44:48;94845.53;;;8.24;87.26
71107;BME280;58763;47.982;11.516;2023-05-03T05:47:16;94842.41;;;8.32;87.18
71107;BME280;58763;47.982;11.516;2023-05-03T05:49:42;94833.28;;;8.33;87.59
71107;BME280;58763;47.982;11.516;2023-05-03T05:52:08;94848.16;;;8.41;87.76
71107;BME280;58763;47.982;11.516;2023-05-03T05:54:34;94841.44;;;8.43;88.24
71107;BME280;58763;47.982;11.516;2023-05-03T05:57:00;94849.63;;;8.53;88.22
71107;BME280;58763;47.982;11.516;2023-05-03T05:59:28;94839.09;;;8.52;88.11
71107;BME280;58763;47.982;11.516;2023-05-03T06:01:55;94840.50;;;8.59;88.27
71107;BME280;58763;47.982;11.516;2023-05-03T06:04:21;94854.06;;;8.69;88.12
71107;BME280;58763;47.982;11.516;2023-05-03T06:06:47;94845.38;;;8.99;87.54
71107;BME280;58763;47.982;11.516;2023-05-03T06:09:13;94840.31;;;9.02;87.16
71107;BME280;58763;47.982;11.516;2023-05-03T06:11:39;94843.66;;;8.83;88.12
71107;BME280;58763;47.982;11.516;2023-05-03T06:14:04;94845.34;;;8.89;89.51
71107;BME280;58763;47.982;11.516;2023-05-03T06:16:43;94838.75;;;9.12;90.30
71107;BME280;58763;47.982;11.516;2023-05-03T06:19:09;94840.38;;;9.18;90.15
71107;BME280;58763;47.982;11.516;2023-05-03T06:21:34;94851.13;;;9.13;90.70
71107;BME280;58763;47.982;11.516;2023-05-03T06:24:00;94850.72;;;9.31;92.15
71107;BME280;58763;47.982;11.516;2023-05-03T06:26:26;94852.97;;;9.49;91.79
71107;BME280;58763;47.982;11.516;2023-05-03T06:28:52;94840.13;;;9.71;90.70
71107;BME280;58763;47.982;11.516;2023-05-03T06:31:17;94842.41;;;10.04;89.48
71107;BME280;58763;47.982;11.516;2023-05-03T06:33:43;94841.69;;;10.29;88.83
71107;BME280;58763;47.982;11.516;2023-05-03T06:36:10;94846.31;;;10.59;87.65
71107;BME280;58763;47.982;11.516;2023-05-03T06:38:37;94851.75;;;10.59;85.22
71107;BME280;58763;47.982;11.516;2023-05-03T06:41:16;94853.34;;;10.50;85.72
71107;BME280;58763;47.982;11.516;2023-05-03T06:43:41;94851.72;;;10.54;84.98
71107;BME280;58763;47.982;11.516;2023-05-03T06:46:07;94859.31;;;10.62;86.89
71107;BME280;58763;47.982;11.516;2023-05-03T06:48:33;94848.22;;;10.68;85.78
71107;BME280;58763;47.982;11.516;2023-05-03T06:50:59;94847.69;;;10.81;85.73
71107;BME280;58763;47.982;11.516;2023-05-03T06:53:31;94853.91;;;10.92;85.24
71107;BME280;58763;47.982;11.516;2023-05-03T06:55:57;94857.41;;;10.97;83.98
71107;BME280;58763;47.982;11.516;2023-05-03T06:58:31;94846.88;;;10.96;84.31
71107;BME280;58763;47.982;11.516;2023-05-03T07:00:57;94847.94;;;11.05;84.00
71107;BME280;58763;47.982;11.516;2023-05-03T07:03:24;94850.66;;;11.10;83.10
71107;BME280;58763;47.982;11.516;2023-05-03T07:05:51;94854.19;;;11.00;83.84
71107;BME280;58763;47.982;11.516;2023-05-03T07:08:17;94854.72;;;10.82;82.95
71107;BME280;58763;47.982;11.516;2023-05-03T07:10:44;94855.53;;;10.73;82.71
71107;BME280;58763;47.982;11.516;2023-05-03T07:13:10;94858.25;;;10.78;82.97
71107;BME280;58763;47.982;11.516;2023-05-03T07:15:38;94860.69;;;10.84;83.25
71107;BME280;58763;47.982;11.516;2023-05-03T07:18:04;94862.56;;;10.84;83.69
71107;BME280;58763;47.982;11.516;2023-05-03T07:20:30;94858.78;;;10.75;84.46
71107;BME280;58763;47.982;11.516;2023-05-03T07:23:06;94861.75;;;10.63;84.04
71107;BME280;58763;47.982;11.516;2023-05-03T07:25:32;94859.28;;;10.47;84.34
71107;BME280;58763;47.982;11.516;2023-05-03T07:28:00;94862.00;;;10.47;83.04
71107;BME280;58763;47.982;11.516;2023-05-03T07:30:26;94860.13;;;10.52;83.35
71107;BME280;58763;47.982;11.516;2023-05-03T07:32:53;94861.19;;;10.51;83.27
71107;BME280;58763;47.982;11.516;2023-05-03T07:35:19;94859.28;;;10.47;82.71
71107;BME280;58763;47.982;11.516;2023-05-03T07:37:45;94856.88;;;10.50;83.27
71107;BME280;58763;47.982;11.516;2023-05-03T07:40:14;94862.81;;;10.52;82.97
71107;BME280;58763;47.982;11.516;2023-05-03T07:42:40;94856.59;;;10.47;81.91
71107;BME280;58763;47.982;11.516;2023-05-03T07:45:07;94864.09;;;10.29;83.19
71107;BME280;58763;47.982;11.516;2023-05-03T07:47:33;94869.00;;;10.37;83.68
71107;BME280;58763;47.982;11.516;2023-05-03T07:50:02;94870.06;;;10.21;83.62
71107;BME280;58763;47.982;11.516;2023-05-03T07:52:39;94867.94;;;10.43;83.51
71107;BME280;58763;47.982;11.516;2023-05-03T07:55:06;94866.06;;;10.49;83.56
71107;BME280;58763;47.982;11.516;2023-05-03T07:57:35;94864.44;;;10.58;83.07
71107;BME280;58763;47.982;11.516;2023-05-03T08:00:02;94858.75;;;10.65;82.39
71107;BME280;58763;47.982;11.516;2023-05-03T08:02:30;94864.72;;;10.62;82.26
71107;BME280;58763;47.982;11.516;2023-05-03T08:04:56;94862.00;;;10.72;82.17
71107;BME280;58763;47.982;11.516;2023-05-03T08:07:21;94857.69;;;10.86;83.51
71107;BME280;58763;47.982;11.516;2023-05-03T08:09:52;94860.13;;;10.92;82.27
71107;BME280;58763;47.982;11.516;2023-05-03T08:12:19;94859.31;;;11.17;83.08
71107;BME280;58763;47.982;11.516;2023-05-03T08:14:44;94856.03;;;11.40;83.07
71107;BME280;58763;47.982;11.516;2023-05-03T08:17:23;94853.25;;;11.55;81.67
71107;BME280;58763;47.982;11.516;2023-05-03T08:19:49;94850.25;;;11.67;80.57
71107;BME280;58763;47.982;11.516;2023-05-03T08:22:15;94852.41;;;11.85;81.12
71107;BME280;58763;47.982;11.516;2023-05-03T08:24:41;94858.28;;;12.02;79.34
71107;BME280;58763;47.982;11.516;2023-05-03T08:27:07;94854.66;;;12.22;80.02
71107;BME280;58763;47.982;11.516;2023-05-03T08:29:34;94861.94;;;12.31;77.86
71107;BME280;58763;47.982;11.516;2023-05-03T08:32:03;94859.13;;;12.46;77.72
71107;BME280;58763;47.982;11.516;2023-05-03T08:34:29;94854.47;;;12.57;76.92
71107;BME280;58763;47.982;11.516;2023-05-03T08:36:55;94859.03;;;12.67;75.77
71107;BME280;58763;47.982;11.516;2023-05-03T08:39:24;94848.94;;;12.72;76.93
71107;BME280;58763;47.982;11.516;2023-05-03T08:41:55;94855.38;;;12.81;73.44
71107;BME280;58763;47.982;11.516;2023-05-03T08:44:28;94855.78;;;12.98;74.80
71107;BME280;58763;47.982;11.516;2023-05-03T08:46:54;94852.34;;;13.22;72.98
71107;BME280;58763;47.982;11.516;2023-05-03T08:49:27;94845.16;;;13.36;73.47
71107;BME280;58763;47.982;11.516;2023-05-03T08:51:55;94840.06;;;13.58;72.59
71107;BME280;58763;47.982;11.516;2023-05-03T08:54:22;94843.59;;;13.82;73.17
71107;BME280;58763;47.982;11.516;2023-05-03T08:56:49;94832.03;;;13.95;71.71
71107;BME280;58763;47.982;11.516;2023-05-03T08:59:15;94832.81;;;13.96;71.22
71107;BME280;58763;47.982;11.516;2023-05-03T09:01:55;94829.72;;;13.83;71.38
71107;BME280;58763;47.982;11.516;2023-05-03T09:04:31;94832.41;;;14.07;71.27
71107;BME280;58763;47.982;11.516;2023-05-03T09:07:07;94834.88;;;14.27;71.04
71107;BME280;58763;47.982;11.516;2023-05-03T09:09:35;94837.34;;;14.47;68.91
71107;BME280;58763;47.982;11.516;2023-05-03T09:12:01;94832.06;;;14.37;68.66
71107;BME280;58763;47.982;11.516;2023-05-03T09:14:45;94840.28;;;14.51;68.39
71107;BME280;58763;47.982;11.516;2023-05-03T09:17:17;94841.44;;;14.45;67.20
71107;BME280;58763;47.982;11.516;2023-05-03T09:19:55;94834.25;;;14.54;67.52
71107;BME280;58763;47.982;11.516;2023-05-03T09:22:24;94843.09;;;14.65;68.54
71107;BME280;58763;47.982;11.516;2023-05-03T09:24:51;94832.78;;;14.62;67.25
71107;BME280;58763;47.982;11.516;2023-05-03T09:27:18;94833.16;;;14.74;66.66
71107;BME280;58763;47.982;11.516;2023-05-03T09:29:48;94825.84;;;14.88;66.99
71107;BME280;58763;47.982;11.516;2023-05-03T09:32:14;94822.78;;;15.08;66.99
71107;BME280;58763;47.982;11.516;2023-05-03T09:34:42;94832.63;;;15.22;65.58
71107;BME280;58763;47.982;11.516;2023-05-03T09:37:08;94830.16;;;15.40;66.10
71107;BME280;58763;47.982;11.516;2023-05-03T09:39:34;94839.94;;;15.41;66.72
71107;BME280;58763;47.982;11.516;2023-05-03T09:42:14;94826.78;;;15.61;64.85
71107;BME280;58763;47.982;11.516;2023-05-03T09:44:43;94828.50;;;15.71;65.32
71107;BME280;58763;47.982;11.516;2023-05-03T09:47:10;94828.22;;;15.86;65.18
71107;BME280;58763;47.982;11.516;2023-05-03T09:49:37;94818.03;;;15.92;64.04
71107;BME280;58763;47.982;11.516;2023-05-03T09:52:03;94819.53;;;15.70;62.06
71107;BME280;58763;47.982;11.516;2023-05-03T09:54:33;94828.13;;;15.77;63.06
71107;BME280;58763;47.982;11.516;2023-05-03T09:57:03;94820.31;;;15.57;63.03
71107;BME280;58763;47.982;11.516;2023-05-03T09:59:31;94820.34;;;15.39;62.76
71107;BME280;58763;47.982;11.516;2023-05-03T10:02:06;94820.56;;;15.42;62.45
71107;BME280;58763;47.982;11.516;2023-05-03T10:04:42;94811.53;;;15.60;62.63
71107;BME280;58763;47.982;11.516;2023-05-03T10:07:14;94809.16;;;15.40;61.54
71107;BME280;58763;47.982;11.516;2023-05-03T10:09:43;94809.91;;;15.13;62.27
71107;BME280;58763;47.982;11.516;2023-05-03T10:12:10;94807.91;;;15.19;61.45
71107;BME280;58763;47.982;11.516;2023-05-03T10:14:44;94808.69;;;15.19;64.28
71107;BME280;58763;47.982;11.516;2023-05-03T10:17:19;94807.47;;;15.44;65.20
71107;BME280;58763;47.982;11.516;2023-05-03T10:19:54;94809.44;;;15.84;63.78
71107;BME280;58763;47.982;11.516;2023-05-03T10:22:20;94813.88;;;16.08;60.06
71107;BME280;58763;47.982;11.516;2023-05-03T10:27:22;94807.00;;;16.24;60.76
71107;BME280;58763;47.982;11.516;2023-05-03T10:29:51;94812.00;;;16.57;61.13
71107;BME280;58763;47.982;11.516;2023-05-03T10:35:08;94804.53;;;17.07;57.79
71107;BME280;58763;47.982;11.516;2023-05-03T10:37:35;94801.66;;;17.35;60.60
71107;BME280;58763;47.982;11.516;2023-05-03T10:40:10;94801.97;;;17.11;60.19
71107;BME280;58763;47.982;11.516;2023-05-03T10:42:37;94799.75;;;16.91;59.52
71107;BME280;58763;47.982;11.516;2023-05-03T10:45:03;94804.63;;;16.58;60.55
71107;BME280;58763;47.982;11.516;2023-05-03T10:47:34;94798.41;;;16.17;57.20
71107;BME280;58763;47.982;11.516;2023-05-03T10:55:10;94808.81;;;16.28;59.77
71107;BME280;58763;47.982;11.516;2023-05-03T10:57:39;94801.94;;;16.31;61.84
71107;BME280;58763;47.982;11.516;2023-05-03T11:00:11;94807.00;;;16.24;62.79
71107;BME280;58763;47.982;11.516;2023-05-03T11:05:30;94799.13;;;15.81;61.67
71107;BME280;58763;47.982;11.516;2023-05-03T11:08:10;94799.13;;;15.81;62.70
71107;BME280;58763;47.982;11.516;2023-05-03T11:10:36;94789.13;;;15.63;63.58
71107;BME280;58763;47.982;11.516;2023-05-03T11:13:02;94788.09;;;15.73;61.35
71107;BME280;58763;47.982;11.516;2023-05-03T11:15:28;94788.81;;;15.78;63.12
71107;BME280;58763;47.982;11.516;2023-05-03T11:17:53;94780.03;;;16.09;63.44
71107;BME280;58763;47.982;11.516;2023-05-03T11:20:19;94790.00;;;16.27;62.65
71107;BME280;58763;47.982;11.516;2023-05-03T11:22:46;94783.84;;;16.21;62.46
71107;BME280;58763;47.982;11.516;2023-05-03T11:25:12;94783.47;;;16.14;60.30
71107;BME280;58763;47.982;11.516;2023-05-03T11:27:41;94786.38;;;16.18;61.23
71107;BME280;58763;47.982;11.516;2023-05-03T11:30:12;94793.13;;;16.20;60.29
71107;BME280;58763;47.982;11.516;2023-05-03T11:32:40;94790.13;;;16.22;61.29
71107;BME280;58763;47.982;11.516;2023-05-03T11:35:06;94782.72;;;16.36;60.85
71107;BME280;58763;47.982;11.516;2023-05-03T11:37:33;94780.06;;;16.58;60.96
71107;BME280;58763;47.982;11.516;2023-05-03T11:39:59;94782.06;;;16.52;59.23
71107;BME280;58763;47.982;11.516;2023-05-03T11:42:28;94777.63;;;16.43;59.52
71107;BME280;58763;47.982;11.516;2023-05-03T11:44:53;94782.69;;;16.49;59.42
71107;BME280;58763;47.982;11.516;2023-05-03T11:47:26;94785.03;;;16.78;60.42
71107;BME280;58763;47.982;11.516;2023-05-03T11:49:53;94777.34;;;16.80;55.38
71107;BME280;58763;47.982;11.516;2023-05-03T11:52:21;94773.91;;;16.97;58.53
71107;BME280;58763;47.982;11.516;2023-05-03T11:54:52;94778.28;;;16.98;58.35
71107;BME280;58763;47.982;11.516;2023-05-03T11:57:19;94781.91;;;17.15;58.67
71107;BME280;58763;47.982;11.516;2023-05-03T11:59:50;94782.44;;;17.17;56.69
71107;BME280;58763;47.982;11.516;2023-05-03T12:02:16;94791.50;;;17.26;55.96
71107;BME280;58763;47.982;11.516;2023-05-03T12:04:42;94777.19;;;17.29;56.76
71107;BME280;58763;47.982;11.516;2023-05-03T12:07:09;94767.97;;;17.48;57.54
71107;BME280;58763;47.982;11.516;2023-05-03T12:09:36;94760.53;;;17.70;56.46
71107;BME280;58763;47.982;11.516;2023-05-03T12:12:05;94763.66;;;17.86;54.98
71107;BME280;58763;47.982;11.516;2023-05-03T12:14:56;94763.22;;;18.01;55.36
71107;BME280;58763;47.982;11.516;2023-05-03T12:17:36;94761.19;;;18.15;54.77
71107;BME280;58763;47.982;11.516;2023-05-03T12:20:19;94750.72;;;18.17;55.11
71107;BME280;58763;47.982;11.516;2023-05-03T12:22:56;94764.00;;;17.93;51.83
71107;BME280;58763;47.982;11.516;2023-05-03T12:25:22;94749.84;;;18.00;54.51
71107;BME280;58763;47.982;11.516;2023-05-03T12:27:51;94759.22;;;18.07;54.27
71107;BME280;58763;47.982;11.516;2023-05-03T12:30:16;94755.03;;;18.01;51.98
71107;BME280;58763;47.982;11.516;2023-05-03T12:32:54;94756.00;;;18.05;53.54
71107;BME280;58763;47.982;11.516;2023-05-03T12:35:21;94759.81;;;17.95;52.83
71107;BME280;58763;47.982;11.516;2023-05-03T12:37:48;94764.59;;;17.73;54.25
71107;BME280;58763;47.982;11.516;2023-05-03T12:40:15;94762.00;;;17.76;54.36
71107;BME280;58763;47.982;11.516;2023-05-03T12:42:41;94764.53;;;17.64;54.24
71107;BME280;58763;47.982;11.516;2023-05-03T12:45:10;94752.84;;;17.81;54.00
71107;BME280;58763;47.982;11.516;2023-05-03T12:47:36;94752.19;;;17.75;54.45
71107;BME280;58763;47.982;11.516;2023-05-03T12:50:04;94747.22;;;17.86;55.00
71107;BME280;58763;47.982;11.516;2023-05-03T12:52:30;94753.03;;;17.76;53.97
71107;BME280;58763;47.982;11.516;2023-05-03T12:55:05;94742.91;;;17.85;53.84
71107;BME280;58763;47.982;11.516;2023-05-03T12:57:32;94739.38;;;17.93;52.63
71107;BME280;58763;47.982;11.516;2023-05-03T12:59:58;94741.91;;;17.81;56.20
71107;BME280;58763;47.982;11.516;2023-05-03T13:02:25;94744.38;;;17.52;54.66
71107;BME280;58763;47.982;11.516;2023-05-03T13:04:51;94754.53;;;17.60;55.51
71107;BME280;58763;47.982;11.516;2023-05-03T13:07:21;94754.53;;;17.07;53.48
71107;BME280;58763;47.982;11.516;2023-05-03T13:09:49;94750.38;;;17.09;55.14
71107;BME280;58763;47.982;11.516;2023-05-03T13:12:17;94743.09;;;17.27;54.77
71107;BME280;58763;47.982;11.516;2023-05-03T13:14:50;94735.91;;;17.40;52.58